Time;durP1;ratioP1;P1;durP2;ratioP2;P2;SDS_P1;SDS_P2;PMS_P1;PMS_P2;Temp;Humidity;BMP_temperature;BMP_pressure;BME280_temperature;BME280_humidity;BME280_pressure;Samples;Min_cycle;Max_cycle;Signal;HPM_P1;HPM_P2
2022/07/16 00:01:22;;;;;;;;;;;;;;;;;;2141513;27;19923;-43
2022/07/16 00:01:39;;;;;;;;;;;;;;;;;;2141232;27;20075;-43
2022/07/16 00:02:40;;;;;;;;;;;;;;;;;;2141336;27;19943;-43
2022/07/16 00:03:41;;;;;;;;;;;;;;;;;;2141279;27;19923;-44
2022/07/16 00:04:41;;;;;;;;;;;;;;;;;;2141364;27;19923;-44
2022/07/16 00:05:42;;;;;;;;;;;;;;;;;;2141291;27;20391;-44
2022/07/16 00:06:44;;;;;;;;;;;;;;;;;;2141184;27;19923;-45
2022/07/16 00:07:45;;;;;;;;;;;;;;;;;;2140305;27;19975;-44
2022/07/16 00:08:45;;;;;;;;;;;;;;;;;;2141092;27;19975;-45
2022/07/16 00:09:46;;;;;;;;;;;;;;;;;;2141461;27;19923;-45
2022/07/16 00:10:47;;;;;;;;;;;;;;;;;;2141206;27;20460;-46
2022/07/16 00:11:48;;;;;;;;;;;;;;;;;;2133323;27;19938;-44
2022/07/16 00:12:49;;;;;;;;;;;;;;;;;;2132799;27;19931;-44
2022/07/16 00:13:50;;;;;;;;;;;;;;;;;;2132702;27;19923;-45
2022/07/16 00:14:51;;;;;;;;;;;;;;;;;;2132472;27;20325;-44
2022/07/16 00:15:53;;;;;;;;;;;;;;;;;;2132595;27;19967;-45
2022/07/16 00:16:54;;;;;;;;;;;;;;;;;;2132528;27;20003;-45
2022/07/16 00:19:18;;;;;;;;;;;;;;;;;;2131816;27;20002;-45
2022/07/16 00:20:19;;;;;;;;;;;;;;;;;;2132762;27;20017;-44
2022/07/16 00:21:20;;;;;;;;;;;;;;;;;;2132628;27;20327;-44
2022/07/16 00:22:21;;;;;;;;;;;;;;;;;;2132545;27;19923;-45
2022/07/16 00:23:21;;;;;;;;;;;;;;;;;;2132560;27;19927;-45
2022/07/16 00:24:22;;;;;;;;;;;;;;;;;;2132569;27;20018;-46
2022/07/16 00:25:23;;;;;;;;;;;;;;;;;;2132688;27;19923;-45
2022/07/16 00:26:24;;;;;;;;;;;;;;;;;;2132441;27;19977;-44
2022/07/16 00:27:25;;;;;;;;;;;;;;;;;;2132681;27;20357;-44
2022/07/16 00:28:26;;;;;;;;;;;;;;;;;;2132649;27;19923;-45
2022/07/16 00:29:27;;;;;;;;;;;;;;;;;;2132539;27;20173;-44
2022/07/16 00:30:28;;;;;;;;;;;;;;;;;;2132639;27;19950;-45
2022/07/16 00:31:29;;;;;;;;;;;;;;;;;;2132335;27;19929;-44
2022/07/16 00:32:29;;;;;;;;;;;;;;;;;;2132508;27;20362;-45
2022/07/16 00:33:30;;;;;;;;;;;;;;;;;;2132493;27;19923;-46
2022/07/16 00:34:32;;;;;;;;;;;;;;;;;;2132474;27;19923;-47
2022/07/16 00:35:33;;;;;;;;;;;;;;;;;;2132516;27;19929;-48
2022/07/16 00:36:34;;;;;;;;;;;;;;;;;;2132503;27;19958;-48
2022/07/16 00:37:35;;;;;;;;;;;;;;;;;;2132500;27;19929;-49
2022/07/16 00:38:36;;;;;;;;;;;;;;;;;;2132547;27;19932;-46
2022/07/16 00:39:37;;;;;;;;;;;;;;;;;;2132428;27;19970;-47
2022/07/16 00:40:38;;;;;;;;;;;;;;;;;;2132580;27;19972;-46
2022/07/16 00:41:39;;;;;;;;;;;;;;;;;;2132447;27;19934;-47
2022/07/16 00:42:39;;;;;;;;;;;;;;;;;;2132418;27;20006;-48
2022/07/16 00:43:40;;;;;;;;;;;;;;;;;;2132573;27;19970;-47
2022/07/16 00:44:41;;;;;;;;;;;;;;;;;;2132335;27;19923;-47
2022/07/16 00:45:42;;;;;;;;;;;;;;;;;;2132574;27;19942;-47
2022/07/16 00:46:43;;;;;;;;;;;;;;;;;;2132543;27;20052;-44
2022/07/16 00:47:44;;;;;;;;;;;;;;;;;;2132392;27;20405;-46
2022/07/16 00:48:45;;;;;;;;;;;;;;;;;;2132396;27;20295;-44
2022/07/16 00:49:46;;;;;;;;;;;;;;;;;;2132516;27;19924;-44
2022/07/16 00:50:46;;;;;;;;;;;;;;;;;;2132668;27;19992;-44
2022/07/16 00:51:47;;;;;;;;;;;;;;;;;;2132294;27;20403;-45
2022/07/16 00:52:48;;;;;;;;;;;;;;;;;;2132360;27;20030;-44
2022/07/16 00:53:49;;;;;;;;;;;;;;;;;;2140823;27;19922;-44
2022/07/16 00:54:50;;;;;;;;;;;;;;;;;;2141040;27;19930;-45
2022/07/16 00:55:51;;;;;;;;;;;;;;;;;;2140963;27;20336;-45
2022/07/16 00:56:51;;;;;;;;;;;;;;;;;;2140664;27;20416;-45
2022/07/16 00:57:53;;;;;;;;;;;;;;;;;;2141035;27;19962;-44
2022/07/16 00:58:53;;;;;;;;;;;;;;;;;;2141321;27;19922;-45
2022/07/16 00:59:54;;;;;;;;;;;;;;;;;;2141119;27;19930;-45
2022/07/16 01:00:55;;;;;;;;;;;;;;;;;;2140906;27;20427;-45
2022/07/16 01:01:56;;;;;;;;;;;;;;;;;;2140923;27;20067;-45
2022/07/16 01:02:57;;;;;;;;;;;;;;;;;;2141092;27;19974;-45
2022/07/16 01:03:58;;;;;;;;;;;;;;;;;;2141014;27;19965;-44
2022/07/16 01:04:58;;;;;;;;;;;;;;;;;;2140946;27;19922;-45
2022/07/16 01:06:00;;;;;;;;;;;;;;;;;;2140817;27;19929;-45
2022/07/16 01:07:00;;;;;;;;;;;;;;;;;;2140946;27;19923;-44
2022/07/16 01:08:01;;;;;;;;;;;;;;;;;;2140868;27;19929;-46
2022/07/16 01:09:02;;;;;;;;;;;;;;;;;;2141098;27;20013;-44
2022/07/16 01:10:03;;;;;;;;;;;;;;;;;;2140959;27;20383;-45
2022/07/16 01:11:04;;;;;;;;;;;;;;;;;;2140689;27;19966;-44
2022/07/16 01:12:05;;;;;;;;;;;;;;;;;;2140772;27;20291;-46
2022/07/16 01:13:06;;;;;;;;;;;;;;;;;;2140861;27;20423;-44
2022/07/16 01:14:07;;;;;;;;;;;;;;;;;;2140805;27;19971;-45
2022/07/16 01:15:07;;;;;;;;;;;;;;;;;;2140863;27;20367;-44
2022/07/16 01:16:08;;;;;;;;;;;;;;;;;;2140822;27;20006;-45
2022/07/16 01:17:09;;;;;;;;;;;;;;;;;;2140983;27;20006;-46
2022/07/16 01:18:10;;;;;;;;;;;;;;;;;;2140987;27;19941;-44
2022/07/16 01:19:11;;;;;;;;;;;;;;;;;;2140474;27;20398;-44
2022/07/16 01:20:12;;;;;;;;;;;;;;;;;;2140818;27;20172;-45
2022/07/16 01:21:13;;;;;;;;;;;;;;;;;;2140792;27;19961;-45
2022/07/16 01:22:14;;;;;;;;;;;;;;;;;;2140926;27;20022;-45
2022/07/16 01:23:15;;;;;;;;;;;;;;;;;;2140771;27;20573;-46
2022/07/16 01:24:16;;;;;;;;;;;;;;;;;;2140829;27;20018;-46
2022/07/16 01:25:17;;;;;;;;;;;;;;;;;;2140749;27;20315;-45
2022/07/16 01:26:18;;;;;;;;;;;;;;;;;;2140635;27;19927;-45
2022/07/16 01:27:19;;;;;;;;;;;;;;;;;;2140706;27;20314;-45
2022/07/16 01:28:20;;;;;;;;;;;;;;;;;;2140715;27;19922;-45
2022/07/16 01:29:20;;;;;;;;;;;;;;;;;;2140769;27;19922;-44
2022/07/16 01:30:21;;;;;;;;;;;;;;;;;;2140861;27;19991;-45
2022/07/16 01:31:22;;;;;;;;;;;;;;;;;;2140723;27;19923;-46
2022/07/16 01:32:23;;;;;;;;;;;;;;;;;;2140858;27;19957;-45
2022/07/16 01:33:24;;;;;;;;;;;;;;;;;;2140708;27;20260;-44
2022/07/16 01:34:25;;;;;;;;;;;;;;;;;;2140666;27;19929;-45
2022/07/16 01:35:26;;;;;;;;;;;;;;;;;;2140770;27;19929;-45
2022/07/16 01:36:27;;;;;;;;;;;;;;;;;;2140556;27;19929;-45
2022/07/16 01:37:27;;;;;;;;;;;;;;;;;;2140800;27;20021;-45
2022/07/16 01:38:28;;;;;;;;;;;;;;;;;;2140881;27;19946;-46
2022/07/16 01:39:29;;;;;;;;;;;;;;;;;;2140751;27;20382;-45
2022/07/16 01:40:30;;;;;;;;;;;;;;;;;;2140778;27;19927;-47
2022/07/16 01:41:31;;;;;;;;;;;;;;;;;;2140898;27;20387;-45
2022/07/16 01:42:32;;;;;;;;;;;;;;;;;;2140581;27;19929;-46
2022/07/16 01:43:33;;;;;;;;;;;;;;;;;;2140694;27;19958;-44
2022/07/16 01:44:34;;;;;;;;;;;;;;;;;;2141002;27;19926;-45
2022/07/16 01:45:35;;;;;;;;;;;;;;;;;;2140724;27;20402;-47
2022/07/16 01:46:36;;;;;;;;;;;;;;;;;;2140705;27;19923;-46
2022/07/16 01:47:37;;;;;;;;;;;;;;;;;;2140981;27;20454;-47
2022/07/16 01:48:38;;;;;;;;;;;;;;;;;;2140600;27;19923;-48
2022/07/16 01:49:39;;;;;;;;;;;;;;;;;;2140668;27;20017;-47
2022/07/16 01:50:40;;;;;;;;;;;;;;;;;;2140914;27;20313;-47
2022/07/16 01:51:41;;;;;;;;;;;;;;;;;;2140482;27;20005;-47
2022/07/16 01:52:42;;;;;;;;;;;;;;;;;;2140937;27;19923;-46
2022/07/16 01:53:43;;;;;;;;;;;;;;;;;;2140681;27;20010;-46
2022/07/16 01:54:44;;;;;;;;;;;;;;;;;;2140471;27;19930;-47
2022/07/16 01:55:45;;;;;;;;;;;;;;;;;;2140775;27;19927;-46
2022/07/16 01:56:46;;;;;;;;;;;;;;;;;;2140527;27;19923;-47
2022/07/16 01:57:47;;;;;;;;;;;;;;;;;;2140915;27;20013;-46
2022/07/16 01:58:48;;;;;;;;;;;;;;;;;;2140565;27;20198;-46
2022/07/16 01:59:48;;;;;;;;;;;;;;;;;;2140766;27;19922;-47
2022/07/16 02:00:50;;;;;;;;;;;;;;;;;;2140635;27;20294;-47
2022/07/16 02:01:50;;;;;;;;;;;;;;;;;;2140539;27;19928;-47
2022/07/16 02:02:51;;;;;;;;;;;;;;;;;;2141056;27;20272;-47
2022/07/16 02:03:52;;;;;;;;;;;;;;;;;;2140841;27;20017;-47
2022/07/16 02:04:53;;;;;;;;;;;;;;;;;;2140624;27;19929;-46
2022/07/16 02:05:54;;;;;;;;;;;;;;;;;;2140456;27;19923;-47
2022/07/16 02:06:55;;;;;;;;;;;;;;;;;;2140422;27;20033;-46
2022/07/16 02:07:56;;;;;;;;;;;;;;;;;;2140425;27;20013;-46
2022/07/16 02:08:57;;;;;;;;;;;;;;;;;;2140446;27;20395;-47
2022/07/16 02:09:58;;;;;;;;;;;;;;;;;;2140562;27;20386;-45
2022/07/16 02:10:59;;;;;;;;;;;;;;;;;;2139676;27;20010;-45
2022/07/16 02:12:00;;;;;;;;;;;;;;;;;;2131916;27;20183;-45
2022/07/16 02:13:01;;;;;;;;;;;;;;;;;;2131766;27;20280;-45
2022/07/16 02:14:01;;;;;;;;;;;;;;;;;;2131843;27;20397;-45
2022/07/16 02:15:02;;;;;;;;;;;;;;;;;;2131727;27;19976;-45
2022/07/16 02:16:03;;;;;;;;;;;;;;;;;;2131747;27;19923;-45
2022/07/16 02:17:04;;;;;;;;;;;;;;;;;;2131847;27;20441;-45
2022/07/16 02:18:05;;;;;;;;;;;;;;;;;;2131757;27;20071;-45
2022/07/16 02:19:06;;;;;;;;;;;;;;;;;;2131789;27;19930;-45
2022/07/16 02:20:07;;;;;;;;;;;;;;;;;;2132140;27;19991;-46
2022/07/16 02:21:08;;;;;;;;;;;;;;;;;;2131713;27;20299;-45
2022/07/16 02:22:09;;;;;;;;;;;;;;;;;;2131844;27;20010;-45
2022/07/16 02:23:10;;;;;;;;;;;;;;;;;;2131658;27;19923;-45
2022/07/16 02:24:11;;;;;;;;;;;;;;;;;;2131882;27;19923;-45
2022/07/16 02:25:12;;;;;;;;;;;;;;;;;;2131761;27;20314;-46
2022/07/16 02:26:12;;;;;;;;;;;;;;;;;;2131638;27;19927;-45
2022/07/16 02:27:13;;;;;;;;;;;;;;;;;;2131790;27;20418;-46
2022/07/16 02:28:14;;;;;;;;;;;;;;;;;;2131770;27;20025;-45
2022/07/16 02:29:15;;;;;;;;;;;;;;;;;;2131866;27;19966;-45
2022/07/16 02:30:16;;;;;;;;;;;;;;;;;;2131885;27;20485;-48
2022/07/16 02:31:17;;;;;;;;;;;;;;;;;;2130955;27;19975;-48
2022/07/16 02:32:18;;;;;;;;;;;;;;;;;;2132012;27;19927;-45
2022/07/16 02:33:19;;;;;;;;;;;;;;;;;;2131827;27;19972;-45
2022/07/16 02:34:20;;;;;;;;;;;;;;;;;;2131837;27;19929;-45
2022/07/16 02:35:21;;;;;;;;;;;;;;;;;;2131582;27;19930;-46
2022/07/16 02:36:21;;;;;;;;;;;;;;;;;;2131950;27;19923;-45
2022/07/16 02:37:23;;;;;;;;;;;;;;;;;;2131820;27;20379;-46
2022/07/16 02:38:24;;;;;;;;;;;;;;;;;;2131709;27;20329;-47
2022/07/16 02:39:25;;;;;;;;;;;;;;;;;;2131809;27;19923;-46
2022/07/16 02:40:25;;;;;;;;;;;;;;;;;;2131830;27;19974;-47
2022/07/16 02:41:26;;;;;;;;;;;;;;;;;;2131779;27;19931;-45
2022/07/16 02:42:27;;;;;;;;;;;;;;;;;;2131756;27;19962;-45
2022/07/16 02:43:28;;;;;;;;;;;;;;;;;;2131739;27;19923;-47
2022/07/16 02:44:29;;;;;;;;;;;;;;;;;;2131670;27;20013;-46
2022/07/16 02:45:30;;;;;;;;;;;;;;;;;;2133261;27;19930;-48
2022/07/16 02:46:31;;;;;;;;;;;;;;;;;;2139995;27;20014;-46
2022/07/16 02:47:32;;;;;;;;;;;;;;;;;;2140392;27;19929;-46
2022/07/16 02:48:33;;;;;;;;;;;;;;;;;;2140202;27;20458;-47
2022/07/16 02:49:34;;;;;;;;;;;;;;;;;;2140275;27;19923;-46
2022/07/16 02:50:34;;;;;;;;;;;;;;;;;;2140201;27;20450;-46
2022/07/16 02:51:36;;;;;;;;;;;;;;;;;;2140585;27;19922;-46
2022/07/16 02:52:36;;;;;;;;;;;;;;;;;;2140197;27;20029;-44
2022/07/16 02:53:37;;;;;;;;;;;;;;;;;;2140436;27;20413;-45
2022/07/16 02:54:38;;;;;;;;;;;;;;;;;;2140278;27;20021;-45
2022/07/16 02:55:39;;;;;;;;;;;;;;;;;;2140266;27;20047;-45
2022/07/16 02:56:40;;;;;;;;;;;;;;;;;;2140456;27;20010;-46
2022/07/16 02:57:41;;;;;;;;;;;;;;;;;;2140446;27;19923;-46
2022/07/16 02:58:43;;;;;;;;;;;;;;;;;;2140281;27;20017;-46
2022/07/16 02:59:44;;;;;;;;;;;;;;;;;;2140130;27;20327;-45
2022/07/16 03:00:45;;;;;;;;;;;;;;;;;;2140138;27;20013;-45
2022/07/16 03:01:45;;;;;;;;;;;;;;;;;;2140182;27;20009;-44
2022/07/16 03:02:46;;;;;;;;;;;;;;;;;;2140151;27;19923;-46
2022/07/16 03:03:47;;;;;;;;;;;;;;;;;;2140202;27;19934;-45
2022/07/16 03:04:48;;;;;;;;;;;;;;;;;;2140252;27;19923;-46
2022/07/16 03:05:50;;;;;;;;;;;;;;;;;;2140271;27;19923;-46
2022/07/16 03:06:50;;;;;;;;;;;;;;;;;;2140462;27;20010;-46
2022/07/16 03:07:51;;;;;;;;;;;;;;;;;;2140201;27;20353;-46
2022/07/16 03:08:52;;;;;;;;;;;;;;;;;;2140299;27;20387;-45
2022/07/16 03:09:53;;;;;;;;;;;;;;;;;;2140404;27;19927;-44
2022/07/16 03:10:54;;;;;;;;;;;;;;;;;;2140125;27;19930;-45
2022/07/16 03:11:55;;;;;;;;;;;;;;;;;;2132027;27;19923;-46
2022/07/16 03:12:56;;;;;;;;;;;;;;;;;;2131573;27;19966;-46
2022/07/16 03:13:57;;;;;;;;;;;;;;;;;;2132005;27;20272;-46
2022/07/16 03:14:57;;;;;;;;;;;;;;;;;;2131455;27;19927;-46
2022/07/16 03:15:59;;;;;;;;;;;;;;;;;;2131692;27;19930;-47
2022/07/16 03:16:59;;;;;;;;;;;;;;;;;;2131527;27;19924;-47
2022/07/16 03:18:00;;;;;;;;;;;;;;;;;;2131466;27;20042;-47
2022/07/16 03:19:01;;;;;;;;;;;;;;;;;;2131517;27;19923;-46
2022/07/16 03:20:02;;;;;;;;;;;;;;;;;;2131646;27;19927;-47
2022/07/16 03:21:03;;;;;;;;;;;;;;;;;;2131363;27;20013;-45
2022/07/16 03:22:04;;;;;;;;;;;;;;;;;;2131656;27;20039;-44
2022/07/16 03:23:05;;;;;;;;;;;;;;;;;;2131615;27;20395;-45
2022/07/16 03:24:06;;;;;;;;;;;;;;;;;;2131437;27;19969;-46
2022/07/16 03:25:06;;;;;;;;;;;;;;;;;;2131563;27;19956;-45
2022/07/16 03:26:07;;;;;;;;;;;;;;;;;;2131328;27;19976;-46
2022/07/16 03:27:08;;;;;;;;;;;;;;;;;;2131765;27;19982;-47
2022/07/16 03:28:09;;;;;;;;;;;;;;;;;;2131516;27;19970;-46
2022/07/16 03:29:10;;;;;;;;;;;;;;;;;;2131301;27;20009;-47
2022/07/16 03:30:11;;;;;;;;;;;;;;;;;;2131334;27;20311;-46
2022/07/16 03:31:12;;;;;;;;;;;;;;;;;;2131430;27;19923;-46
2022/07/16 03:32:13;;;;;;;;;;;;;;;;;;2131392;27;19923;-49
2022/07/16 03:33:14;;;;;;;;;;;;;;;;;;2131650;27;20018;-45
2022/07/16 03:34:15;;;;;;;;;;;;;;;;;;2131960;27;20283;-47
2022/07/16 03:35:16;;;;;;;;;;;;;;;;;;2131412;27;20013;-46
2022/07/16 03:36:17;;;;;;;;;;;;;;;;;;2131569;27;20412;-48
2022/07/16 03:37:17;;;;;;;;;;;;;;;;;;2131856;27;20007;-46
2022/07/16 03:39:38;;;;;;;;;;;;;;;;;;2131491;27;20014;-47
2022/07/16 03:40:39;;;;;;;;;;;;;;;;;;2131292;27;20358;-47
2022/07/16 03:41:40;;;;;;;;;;;;;;;;;;2132101;27;19923;-48
2022/07/16 03:42:41;;;;;;;;;;;;;;;;;;2141269;27;19922;-46
2022/07/16 03:43:42;;;;;;;;;;;;;;;;;;2141505;27;19923;-46
2022/07/16 03:44:43;;;;;;;;;;;;;;;;;;2141470;27;20009;-47
2022/07/16 03:45:43;;;;;;;;;;;;;;;;;;2141412;27;20478;-46
2022/07/16 03:46:44;;;;;;;;;;;;;;;;;;2141253;27;19931;-47
2022/07/16 03:47:45;;;;;;;;;;;;;;;;;;2142067;27;19955;-45
2022/07/16 03:48:46;;;;;;;;;;;;;;;;;;2141668;27;19950;-45
2022/07/16 03:49:47;;;;;;;;;;;;;;;;;;2141512;27;19927;-45
2022/07/16 03:50:48;;;;;;;;;;;;;;;;;;2141601;27;19946;-46
2022/07/16 03:51:49;;;;;;;;;;;;;;;;;;2141485;27;20438;-49
2022/07/16 03:52:50;;;;;;;;;;;;;;;;;;2141361;27;19929;-48
2022/07/16 03:53:51;;;;;;;;;;;;;;;;;;2141587;27;19961;-45
2022/07/16 03:54:52;;;;;;;;;;;;;;;;;;2141442;27;19923;-45
2022/07/16 03:55:53;;;;;;;;;;;;;;;;;;2141291;27;20335;-46
2022/07/16 03:56:54;;;;;;;;;;;;;;;;;;2141492;27;19930;-47
2022/07/16 03:57:54;;;;;;;;;;;;;;;;;;2141301;27;20435;-47
2022/07/16 03:58:55;;;;;;;;;;;;;;;;;;2141299;27;19943;-47
2022/07/16 03:59:56;;;;;;;;;;;;;;;;;;2141286;27;19923;-48
2022/07/16 04:00:57;;;;;;;;;;;;;;;;;;2141490;27;19971;-47
2022/07/16 04:01:58;;;;;;;;;;;;;;;;;;2141387;27;20017;-47
2022/07/16 04:02:59;;;;;;;;;;;;;;;;;;2141393;27;20053;-47
2022/07/16 04:04:00;;;;;;;;;;;;;;;;;;2141529;27;19923;-49
2022/07/16 04:05:01;;;;;;;;;;;;;;;;;;2141331;27;19923;-46
2022/07/16 04:06:02;;;;;;;;;;;;;;;;;;2141261;27;20441;-47
2022/07/16 04:07:03;;;;;;;;;;;;;;;;;;2141669;27;19946;-48
2022/07/16 04:08:03;;;;;;;;;;;;;;;;;;2141418;27;19922;-47
2022/07/16 04:09:04;;;;;;;;;;;;;;;;;;2141304;27;20359;-46
2022/07/16 04:10:05;;;;;;;;;;;;;;;;;;2141575;27;19922;-47
2022/07/16 04:11:06;;;;;;;;;;;;;;;;;;2141070;27;19934;-47
2022/07/16 04:12:07;;;;;;;;;;;;;;;;;;2141632;27;20410;-45
2022/07/16 04:13:08;;;;;;;;;;;;;;;;;;2141481;27;20018;-47
2022/07/16 04:14:09;;;;;;;;;;;;;;;;;;2141107;27;20291;-46
2022/07/16 04:15:10;;;;;;;;;;;;;;;;;;2141478;27;19954;-45
2022/07/16 04:16:11;;;;;;;;;;;;;;;;;;2141328;27;19923;-45
2022/07/16 04:17:12;;;;;;;;;;;;;;;;;;2141166;27;20438;-47
2022/07/16 04:18:13;;;;;;;;;;;;;;;;;;2141217;27;20014;-46
2022/07/16 04:19:14;;;;;;;;;;;;;;;;;;2141478;27;20383;-45
2022/07/16 04:20:15;;;;;;;;;;;;;;;;;;2141211;27;19922;-45
2022/07/16 04:21:16;;;;;;;;;;;;;;;;;;2141418;27;20013;-47
2022/07/16 04:22:17;;;;;;;;;;;;;;;;;;2141469;27;19927;-48
2022/07/16 04:23:18;;;;;;;;;;;;;;;;;;2141466;27;19927;-47
2022/07/16 04:24:19;;;;;;;;;;;;;;;;;;2141304;27;19923;-47
2022/07/16 04:25:20;;;;;;;;;;;;;;;;;;2141137;27;19922;-47
2022/07/16 04:26:21;;;;;;;;;;;;;;;;;;2141007;27;19978;-47
2022/07/16 04:27:22;;;;;;;;;;;;;;;;;;2141330;27;20389;-47
2022/07/16 04:28:23;;;;;;;;;;;;;;;;;;2141199;27;19929;-47
2022/07/16 04:29:24;;;;;;;;;;;;;;;;;;2141121;27;20010;-47
2022/07/16 04:30:25;;;;;;;;;;;;;;;;;;2141269;27;20324;-47
2022/07/16 04:31:26;;;;;;;;;;;;;;;;;;2141206;27;19991;-46
2022/07/16 04:32:27;;;;;;;;;;;;;;;;;;2141352;27;20168;-47
2022/07/16 04:33:28;;;;;;;;;;;;;;;;;;2141860;27;19927;-46
2022/07/16 04:34:29;;;;;;;;;;;;;;;;;;2141106;27;19937;-47
2022/07/16 04:35:29;;;;;;;;;;;;;;;;;;2141260;27;19922;-46
2022/07/16 04:36:30;;;;;;;;;;;;;;;;;;2141051;27;19922;-46
2022/07/16 04:37:31;;;;;;;;;;;;;;;;;;2141350;27;20272;-46
2022/07/16 04:38:32;;;;;;;;;;;;;;;;;;2140967;27;19944;-45
2022/07/16 04:39:33;;;;;;;;;;;;;;;;;;2141103;27;20363;-46
2022/07/16 04:40:34;;;;;;;;;;;;;;;;;;2141088;27;19929;-46
2022/07/16 04:41:35;;;;;;;;;;;;;;;;;;2141025;27;19976;-48
2022/07/16 04:42:36;;;;;;;;;;;;;;;;;;2141025;27;20025;-45
2022/07/16 04:43:37;;;;;;;;;;;;;;;;;;2141250;27;19948;-47
2022/07/16 04:44:38;;;;;;;;;;;;;;;;;;2141387;27;19927;-45
2022/07/16 04:45:39;;;;;;;;;;;;;;;;;;2141029;27;19923;-47
2022/07/16 04:46:40;;;;;;;;;;;;;;;;;;2141100;27;20290;-45
2022/07/16 04:47:41;;;;;;;;;;;;;;;;;;2140852;27;19930;-46
2022/07/16 04:48:42;;;;;;;;;;;;;;;;;;2141380;27;19937;-47
2022/07/16 04:49:43;;;;;;;;;;;;;;;;;;2141126;27;19923;-48
2022/07/16 04:50:44;;;;;;;;;;;;;;;;;;2141106;27;19929;-48
2022/07/16 04:51:44;;;;;;;;;;;;;;;;;;2141439;27;20009;-47
2022/07/16 04:52:45;;;;;;;;;;;;;;;;;;2141625;27;20397;-47
2022/07/16 04:53:46;;;;;;;;;;;;;;;;;;2141097;27;19969;-48
2022/07/16 04:54:47;;;;;;;;;;;;;;;;;;2140889;27;20432;-44
2022/07/16 04:55:48;;;;;;;;;;;;;;;;;;2141105;27;19954;-45
2022/07/16 04:56:49;;;;;;;;;;;;;;;;;;2140841;27;19982;-47
2022/07/16 04:57:50;;;;;;;;;;;;;;;;;;2141125;27;19922;-44
2022/07/16 04:58:56;;;;;;;;;;;;;;;;;;2141539;27;20333;-49
2022/07/16 04:59:57;;;;;;;;;;;;;;;;;;2141076;27;19923;-48
2022/07/16 05:00:57;;;;;;;;;;;;;;;;;;2140906;27;20390;-48
2022/07/16 05:02:56;;;;;;;;;;;;;;;;;;2140959;27;19965;-47
2022/07/16 05:03:20;;;;;;;;;;;;;;;;;;2140951;27;19965;-47
2022/07/16 05:04:21;;;;;;;;;;;;;;;;;;2141047;27;19922;-49
2022/07/16 05:05:22;;;;;;;;;;;;;;;;;;2141200;27;19927;-47
2022/07/16 05:06:23;;;;;;;;;;;;;;;;;;2141381;27;19922;-45
2022/07/16 05:07:24;;;;;;;;;;;;;;;;;;2141084;27;19923;-45
2022/07/16 05:08:25;;;;;;;;;;;;;;;;;;2141115;27;19962;-46
2022/07/16 05:09:26;;;;;;;;;;;;;;;;;;2141456;27;20055;-47
2022/07/16 05:10:27;;;;;;;;;;;;;;;;;;2140899;27;19927;-48
2022/07/16 05:11:28;;;;;;;;;;;;;;;;;;2136332;27;19974;-47
2022/07/16 05:12:29;;;;;;;;;;;;;;;;;;2132227;27;20295;-48
2022/07/16 05:13:30;;;;;;;;;;;;;;;;;;2132563;27;20014;-45
2022/07/16 05:14:31;;;;;;;;;;;;;;;;;;2132387;27;20380;-47
2022/07/16 05:15:32;;;;;;;;;;;;;;;;;;2132615;27;19927;-45
2022/07/16 05:16:33;;;;;;;;;;;;;;;;;;2132704;27;19952;-45
2022/07/16 05:17:34;;;;;;;;;;;;;;;;;;2132354;27;19927;-44
2022/07/16 05:18:35;;;;;;;;;;;;;;;;;;2132102;27;20364;-46
2022/07/16 05:19:36;;;;;;;;;;;;;;;;;;2132399;27;19927;-47
2022/07/16 05:20:37;;;;;;;;;;;;;;;;;;2133076;27;20316;-46
2022/07/16 05:21:38;;;;;;;;;;;;;;;;;;2132450;27;19995;-48
2022/07/16 05:22:39;;;;;;;;;;;;;;;;;;2132321;27;20006;-48
2022/07/16 05:23:40;;;;;;;;;;;;;;;;;;2132261;27;20017;-47
2022/07/16 05:24:41;;;;;;;;;;;;;;;;;;2132419;27;20252;-48
2022/07/16 05:25:42;;;;;;;;;;;;;;;;;;2132461;27;19931;-46
2022/07/16 05:26:43;;;;;;;;;;;;;;;;;;2132408;27;20299;-47
2022/07/16 05:27:44;;;;;;;;;;;;;;;;;;2132041;27;20352;-48
2022/07/16 05:28:45;;;;;;;;;;;;;;;;;;2132145;27;19930;-45
2022/07/16 05:29:46;;;;;;;;;;;;;;;;;;2132147;27;19930;-44
2022/07/16 05:30:47;;;;;;;;;;;;;;;;;;2132185;27;19966;-45
2022/07/16 05:31:47;;;;;;;;;;;;;;;;;;2132349;27;19991;-47
2022/07/16 05:32:48;;;;;;;;;;;;;;;;;;2132306;27;19923;-49
2022/07/16 05:33:50;;;;;;;;;;;;;;;;;;2133211;27;19924;-45
2022/07/16 05:34:51;;;;;;;;;;;;;;;;;;2139029;27;20055;-48
2022/07/16 05:35:52;;;;;;;;;;;;;;;;;;2132786;27;20384;-45
2022/07/16 05:36:53;;;;;;;;;;;;;;;;;;2132122;27;19923;-46
2022/07/16 05:37:54;;;;;;;;;;;;;;;;;;2132071;27;19969;-45
2022/07/16 05:38:55;;;;;;;;;;;;;;;;;;2132445;27;20010;-45
2022/07/16 05:39:56;;;;;;;;;;;;;;;;;;2132289;27;19943;-45
2022/07/16 05:40:57;;;;;;;;;;;;;;;;;;2131970;27;19922;-45
2022/07/16 05:41:57;;;;;;;;;;;;;;;;;;2132270;27;19955;-50
2022/07/16 05:42:58;;;;;;;;;;;;;;;;;;2132160;27;19927;-45
2022/07/16 05:43:59;;;;;;;;;;;;;;;;;;2132188;27;20412;-46
2022/07/16 05:45:01;;;;;;;;;;;;;;;;;;2132162;27;19944;-47
2022/07/16 05:46:01;;;;;;;;;;;;;;;;;;2132477;27;19970;-46
2022/07/16 05:47:02;;;;;;;;;;;;;;;;;;2132369;27;20037;-50
2022/07/16 05:48:03;;;;;;;;;;;;;;;;;;2132174;27;20648;-47
2022/07/16 05:49:04;;;;;;;;;;;;;;;;;;2132668;27;19923;-47
2022/07/16 05:50:05;;;;;;;;;;;;;;;;;;2132381;27;19926;-48
2022/07/16 05:51:06;;;;;;;;;;;;;;;;;;2131849;27;19927;-47
2022/07/16 05:52:07;;;;;;;;;;;;;;;;;;2132041;27;20320;-47
2022/07/16 05:53:08;;;;;;;;;;;;;;;;;;2132105;27;19929;-48
2022/07/16 05:54:09;;;;;;;;;;;;;;;;;;2132163;27;19930;-49
2022/07/16 05:55:10;;;;;;;;;;;;;;;;;;2132055;27;19930;-46
2022/07/16 05:56:11;;;;;;;;;;;;;;;;;;2132180;27;19923;-45
2022/07/16 05:57:15;;;;;;;;;;;;;;;;;;2132004;27;19927;-46
2022/07/16 05:58:15;;;;;;;;;;;;;;;;;;2131891;27;19969;-45
2022/07/16 05:59:16;;;;;;;;;;;;;;;;;;2132219;27;19930;-48
2022/07/16 06:00:18;;;;;;;;;;;;;;;;;;2132338;27;19968;-48
2022/07/16 06:01:19;;;;;;;;;;;;;;;;;;2131928;27;19923;-49
2022/07/16 06:02:19;;;;;;;;;;;;;;;;;;2131873;27;19927;-47
2022/07/16 06:03:21;;;;;;;;;;;;;;;;;;2132065;27;20294;-46
2022/07/16 06:04:21;;;;;;;;;;;;;;;;;;2132191;27;19929;-49
2022/07/16 06:05:23;;;;;;;;;;;;;;;;;;2131784;27;19923;-45
2022/07/16 06:06:24;;;;;;;;;;;;;;;;;;2131295;27;20013;-48
2022/07/16 06:07:25;;;;;;;;;;;;;;;;;;2132393;27;20010;-48
2022/07/16 06:08:26;;;;;;;;;;;;;;;;;;2132885;27;20006;-49
2022/07/16 06:09:27;;;;;;;;;;;;;;;;;;2131890;27;19923;-48
2022/07/16 06:10:28;;;;;;;;;;;;;;;;;;2132471;27;19927;-46
2022/07/16 06:11:29;;;;;;;;;;;;;;;;;;2131711;27;19923;-47
2022/07/16 06:12:30;;;;;;;;;;;;;;;;;;2132377;27;20367;-49
2022/07/16 06:13:31;;;;;;;;;;;;;;;;;;2131756;27;19923;-49
2022/07/16 06:14:32;;;;;;;;;;;;;;;;;;2132371;27;20458;-44
2022/07/16 06:15:32;;;;;;;;;;;;;;;;;;2131850;27;20010;-45
2022/07/16 06:16:33;;;;;;;;;;;;;;;;;;2132104;27;20029;-45
2022/07/16 06:17:34;;;;;;;;;;;;;;;;;;2132277;27;20006;-45
2022/07/16 06:18:35;;;;;;;;;;;;;;;;;;2131913;27;19927;-45
2022/07/16 06:19:37;;;;;;;;;;;;;;;;;;2132060;27;19923;-47
2022/07/16 06:20:38;;;;;;;;;;;;;;;;;;2131805;27;20332;-50
2022/07/16 06:21:38;;;;;;;;;;;;;;;;;;2132055;27;19927;-47
2022/07/16 06:22:39;;;;;;;;;;;;;;;;;;2132085;27;19923;-46
2022/07/16 06:23:45;;;;;;;;;;;;;;;;;;2131932;27;19923;-45
2022/07/16 06:24:46;;;;;;;;;;;;;;;;;;2131752;27;19951;-46
2022/07/16 06:25:46;;;;;;;;;;;;;;;;;;2131844;27;19971;-46
2022/07/16 06:26:47;;;;;;;;;;;;;;;;;;2132484;27;20656;-48
2022/07/16 06:27:48;;;;;;;;;;;;;;;;;;2132090;27;19926;-45
2022/07/16 06:28:49;;;;;;;;;;;;;;;;;;2131928;27;19922;-46
2022/07/16 06:29:50;;;;;;;;;;;;;;;;;;2132194;27;19923;-46
2022/07/16 06:30:51;;;;;;;;;;;;;;;;;;2136726;27;19923;-45
2022/07/16 06:31:52;;;;;;;;;;;;;;;;;;2140050;27;20331;-46
2022/07/16 06:32:55;;;;;;;;;;;;;;;;;;2140505;27;19929;-46
2022/07/16 06:33:56;;;;;;;;;;;;;;;;;;2140243;27;19927;-46
2022/07/16 06:34:57;;;;;;;;;;;;;;;;;;2140415;27;19923;-46
2022/07/16 06:35:57;;;;;;;;;;;;;;;;;;2140099;27;19922;-46
2022/07/16 06:36:58;;;;;;;;;;;;;;;;;;2140432;27;20431;-45
2022/07/16 06:37:59;;;;;;;;;;;;;;;;;;2140428;27;20021;-46
2022/07/16 06:39:00;;;;;;;;;;;;;;;;;;2139882;27;19954;-47
2022/07/16 06:40:01;;;;;;;;;;;;;;;;;;2139504;27;20021;-45
2022/07/16 06:41:02;;;;;;;;;;;;;;;;;;2139439;27;19929;-45
2022/07/16 06:42:03;;;;;;;;;;;;;;;;;;2139694;27;20387;-46
2022/07/16 06:43:04;;;;;;;;;;;;;;;;;;2140516;27;19929;-45
2022/07/16 06:44:05;;;;;;;;;;;;;;;;;;2140367;27;19933;-46
2022/07/16 06:45:05;;;;;;;;;;;;;;;;;;2140475;27;19929;-51
2022/07/16 06:46:06;;;;;;;;;;;;;;;;;;2140503;27;19933;-46
2022/07/16 06:47:07;;;;;;;;;;;;;;;;;;2140337;27;20012;-49
2022/07/16 06:48:08;;;;;;;;;;;;;;;;;;2140230;27;19927;-49
2022/07/16 06:49:09;;;;;;;;;;;;;;;;;;2140438;27;20024;-49
2022/07/16 06:50:10;;;;;;;;;;;;;;;;;;2140418;27;19922;-48
2022/07/16 06:51:12;;;;;;;;;;;;;;;;;;2140207;27;20359;-51
2022/07/16 06:52:13;;;;;;;;;;;;;;;;;;2140664;27;20062;-45
2022/07/16 06:53:14;;;;;;;;;;;;;;;;;;2140093;27;20399;-46
2022/07/16 06:54:15;;;;;;;;;;;;;;;;;;2140354;27;19923;-45
2022/07/16 06:55:16;;;;;;;;;;;;;;;;;;2140376;27;20343;-49
2022/07/16 06:56:17;;;;;;;;;;;;;;;;;;2140029;27;20002;-49
2022/07/16 06:57:18;;;;;;;;;;;;;;;;;;2134004;27;20021;-45
2022/07/16 06:58:19;;;;;;;;;;;;;;;;;;2131654;27;20018;-45
2022/07/16 06:59:20;;;;;;;;;;;;;;;;;;2131449;27;19988;-45